Camp Ernest, Kentucky
Current Conditions -  °F | °C
As of 5:52 AM on Wednesday 22 Oct 2014 (Local Time) from KCVG Reporting Station
Overcast Overcast  
Wind Chill: 42°   Ceiling: 3500
Heat Index: 46°   Visibility: 10mi
Dew Point: 37°   Wind: 8mph
Humidity: 71%   Direction: 10°N
Pressure: 30.22"   Gusts: NA
Location:  39.0238°N, 84.7647°W
Report Text: KCVG 220952Z 01007KT 10SM OVC035 08/03 A3022 RMK AO2 SLP232 T00780028
Loading
Personal Weather Stations






























Interactive Weather Map
Tropical Storm Tracking
New forecast layout! Learn more

10-Day Weather Forecast

Advertisements
Track Severe Weather on mobile